createdAt,value
2023-04-29T00:01:20.958Z,21.15
2023-04-29T00:03:47.938Z,17.48
2023-04-29T00:06:15.195Z,15.63
2023-04-29T00:08:42.101Z,18.27
2023-04-29T00:11:08.816Z,18.85
2023-04-29T00:13:35.459Z,19.83
2023-04-29T00:16:02.195Z,19.40
2023-04-29T00:18:28.816Z,15.43
2023-04-29T00:20:55.454Z,15.93
2023-04-29T00:23:22.077Z,15.07
2023-04-29T00:25:48.757Z,13.63
2023-04-29T00:28:15.390Z,15.13
2023-04-29T00:30:42.170Z,15.52
2023-04-29T00:33:09.060Z,12.52
2023-04-29T00:35:36.237Z,15.30
2023-04-29T00:38:02.928Z,14.55
2023-04-29T00:40:29.659Z,13.30
2023-04-29T00:42:57.210Z,13.70
2023-04-29T00:45:24.381Z,12.75
2023-04-29T00:47:51.561Z,10.98
2023-04-29T00:50:18.371Z,12.70
2023-04-29T00:52:45.239Z,12.77
2023-04-29T00:55:15.898Z,15.50
2023-04-29T00:57:42.655Z,12.07
2023-04-29T01:00:13.938Z,15.60
2023-04-29T01:02:40.926Z,13.60
2023-04-29T01:05:07.817Z,13.68
2023-04-29T01:07:48.786Z,16.63
2023-04-29T01:10:28.297Z,13.82
2023-04-29T01:13:27.936Z,13.73
2023-04-29T01:16:03.781Z,15.25
2023-04-29T01:18:37.373Z,17.70
2023-04-29T01:21:04.235Z,15.30
2023-04-29T01:23:31.055Z,16.60
2023-04-29T01:25:58.765Z,17.90
2023-04-29T01:28:54.750Z,17.45
2023-04-29T01:31:28.339Z,18.38
2023-04-29T01:34:14.595Z,16.95
2023-04-29T01:36:58.998Z,15.02
2023-04-29T01:39:52.458Z,13.32
2023-04-29T01:42:29.388Z,15.80
2023-04-29T01:45:01.249Z,17.23
2023-04-29T01:47:29.892Z,15.65
2023-04-29T01:49:56.569Z,17.00
2023-04-29T01:52:23.788Z,15.90
2023-04-29T01:54:54.983Z,16.92
2023-04-29T01:57:21.844Z,17.33
2023-04-29T01:59:57.399Z,15.32
2023-04-29T02:02:48.056Z,15.00
2023-04-29T02:05:37.435Z,17.90
2023-04-29T02:08:04.538Z,12.93
2023-04-29T02:10:33.335Z,16.55
2023-04-29T02:13:20.454Z,18.77
2023-04-29T02:15:47.742Z,16.15
2023-04-29T02:18:16.028Z,14.85
2023-04-29T02:20:43.267Z,18.52
2023-04-29T02:23:10.490Z,14.25
2023-04-29T02:25:37.316Z,14.90
2023-04-29T02:28:04.068Z,15.23
2023-04-29T02:30:31.433Z,18.95
2023-04-29T02:32:58.206Z,15.10
2023-04-29T02:35:24.925Z,16.67
2023-04-29T02:37:52.280Z,15.18
2023-04-29T02:40:19.310Z,12.73
2023-04-29T02:42:45.991Z,13.77
2023-04-29T02:45:12.698Z,14.70
2023-04-29T02:47:39.374Z,14.50
2023-04-29T02:50:06.743Z,13.57
2023-04-29T02:52:33.632Z,14.52
2023-04-29T02:55:00.344Z,13.65
2023-04-29T02:57:27.091Z,14.00
2023-04-29T02:59:54.124Z,13.95
2023-04-29T03:02:21.119Z,13.93
2023-04-29T03:04:52.771Z,14.60
2023-04-29T03:07:20.064Z,17.23
2023-04-29T03:09:46.731Z,15.82
2023-04-29T03:12:16.868Z,14.52
2023-04-29T03:14:45.518Z,15.82
2023-04-29T03:17:13.681Z,14.02
2023-04-29T03:19:41.483Z,16.08
2023-04-29T03:22:11.976Z,16.13
2023-04-29T03:24:41.420Z,15.50
2023-04-29T03:27:08.185Z,16.77
2023-04-29T03:29:35.063Z,14.77
2023-04-29T03:32:02.713Z,17.27
2023-04-29T03:34:30.088Z,21.77
2023-04-29T03:37:19.963Z,17.02
2023-04-29T03:39:53.811Z,13.02
2023-04-29T03:42:20.913Z,15.50
2023-04-29T03:44:47.573Z,17.75
2023-04-29T03:47:14.252Z,16.45
2023-04-29T03:49:41.190Z,16.55
2023-04-29T03:52:07.944Z,17.83
2023-04-29T03:54:34.603Z,15.60
2023-04-29T03:57:02.377Z,14.90
2023-04-29T03:59:29.093Z,18.27
2023-04-29T04:01:56.010Z,17.75
2023-04-29T04:04:23.038Z,17.50
2023-04-29T04:06:51.949Z,18.50
2023-04-29T04:09:21.298Z,17.13
2023-04-29T04:11:48.045Z,15.57
2023-04-29T04:14:15.194Z,16.75
2023-04-29T04:16:42.003Z,16.02
2023-04-29T04:19:09.284Z,14.48
2023-04-29T04:21:39.313Z,21.85
2023-04-29T04:24:08.939Z,18.75
2023-04-29T04:26:35.742Z,19.10
2023-04-29T04:29:15.687Z,19.42
2023-04-29T04:31:55.090Z,18.75
2023-04-29T04:34:22.881Z,16.65
2023-04-29T04:36:51.759Z,18.38
2023-04-29T04:39:18.404Z,15.95
2023-04-29T04:41:45.609Z,16.88
2023-04-29T04:44:13.341Z,18.45
2023-04-29T04:46:57.327Z,18.80
2023-04-29T04:49:42.548Z,18.05
2023-04-29T04:52:09.280Z,18.13
2023-04-29T04:54:35.923Z,19.65
2023-04-29T04:57:16.611Z,18.75
2023-04-29T04:59:44.453Z,17.35
2023-04-29T05:02:11.309Z,17.75
2023-04-29T05:04:38.031Z,19.90
2023-04-29T05:07:04.941Z,23.02
2023-04-29T05:09:43.360Z,21.15
2023-04-29T05:12:10.073Z,21.00
2023-04-29T05:14:37.099Z,19.88
2023-04-29T05:17:03.940Z,16.92
2023-04-29T05:19:31.385Z,18.60
2023-04-29T05:21:58.143Z,16.90
2023-04-29T05:24:24.870Z,15.15
2023-04-29T05:26:52.033Z,16.23
2023-04-29T05:29:20.569Z,15.65
2023-04-29T05:31:52.175Z,17.40
2023-04-29T05:34:19.477Z,15.05
2023-04-29T05:36:46.657Z,15.05
2023-04-29T05:39:13.424Z,15.30
2023-04-29T05:41:40.043Z,15.30
2023-04-29T05:44:15.676Z,15.98
2023-04-29T05:46:42.400Z,14.75
2023-04-29T05:49:09.156Z,14.90
2023-04-29T05:51:36.136Z,13.98
2023-04-29T05:54:03.112Z,14.45
2023-04-29T05:56:31.512Z,12.85
2023-04-29T05:58:58.711Z,13.85
2023-04-29T06:01:25.453Z,12.63
2023-04-29T06:03:52.508Z,12.40
2023-04-29T06:06:28.070Z,15.38
2023-04-29T06:09:05.183Z,14.70
2023-04-29T06:11:35.233Z,14.00
2023-04-29T06:14:02.342Z,13.60
2023-04-29T06:16:29.729Z,13.27
2023-04-29T06:18:56.798Z,14.32
2023-04-29T06:21:23.787Z,14.23
2023-04-29T06:23:50.709Z,10.40
2023-04-29T06:26:17.576Z,12.27
2023-04-29T06:28:44.822Z,11.65
2023-04-29T06:31:12.376Z,13.00
2023-04-29T06:33:39.492Z,11.18
2023-04-29T06:36:06.426Z,10.55
2023-04-29T06:38:51.541Z,10.43
2023-04-29T06:41:37.017Z,9.25
2023-04-29T06:44:22.935Z,11.77
2023-04-29T06:47:02.285Z,12.32
2023-04-29T06:49:47.471Z,12.85
2023-04-29T06:52:15.023Z,9.10
2023-04-29T06:54:43.162Z,10.52
2023-04-29T06:57:09.905Z,10.80
2023-04-29T06:59:37.195Z,10.43
2023-04-29T07:02:04.111Z,11.32
2023-04-29T07:04:30.855Z,9.00
2023-04-29T07:06:59.021Z,8.65
2023-04-29T07:09:27.606Z,8.63
2023-04-29T07:11:55.065Z,10.13
2023-04-29T07:14:24.633Z,8.18
2023-04-29T07:16:55.033Z,8.73
2023-04-29T07:19:22.107Z,11.20
2023-04-29T07:21:49.056Z,6.60
2023-04-29T07:24:15.724Z,8.30
2023-04-29T07:26:45.090Z,5.57
2023-04-29T07:29:14.604Z,6.28
2023-04-29T07:31:41.561Z,6.35
2023-04-29T07:34:08.327Z,8.57
2023-04-29T07:36:35.521Z,6.82
2023-04-29T07:39:03.204Z,5.47
2023-04-29T07:41:31.425Z,4.97
2023-04-29T07:43:58.710Z,5.55
2023-04-29T07:46:25.485Z,4.82
2023-04-29T07:48:53.015Z,6.55
2023-04-29T07:51:19.704Z,4.47
2023-04-29T07:53:46.354Z,6.38
2023-04-29T07:56:13.118Z,4.43
2023-04-29T07:58:40.800Z,4.20
2023-04-29T08:01:12.097Z,5.00
2023-04-29T08:03:41.659Z,4.10
2023-04-29T08:06:09.787Z,4.22
2023-04-29T08:08:36.672Z,5.93
2023-04-29T08:11:03.638Z,3.45
2023-04-29T08:13:30.466Z,3.80
2023-04-29T08:15:57.398Z,3.42
2023-04-29T08:18:24.132Z,2.85
2023-04-29T08:20:51.645Z,3.05
2023-04-29T08:23:18.411Z,2.22
2023-04-29T08:25:45.857Z,2.00
2023-04-29T08:28:12.477Z,2.78
2023-04-29T08:30:40.938Z,4.07
2023-04-29T08:33:08.372Z,2.05
2023-04-29T08:35:37.723Z,3.63
2023-04-29T08:38:09.734Z,2.53
2023-04-29T08:40:42.552Z,3.67
2023-04-29T08:43:10.596Z,3.72
2023-04-29T08:45:37.838Z,3.28
2023-04-29T08:48:06.752Z,2.53
2023-04-29T08:50:41.459Z,1.85
2023-04-29T08:53:13.143Z,1.65
2023-04-29T08:55:47.835Z,1.92
2023-04-29T08:58:16.367Z,2.92
2023-04-29T09:00:44.437Z,4.45
2023-04-29T09:03:25.356Z,2.05
2023-04-29T09:05:58.048Z,3.40
2023-04-29T09:08:24.976Z,1.52
2023-04-29T09:10:53.140Z,2.55
2023-04-29T09:13:38.139Z,3.53
2023-04-29T09:16:06.078Z,2.25
2023-04-29T09:18:52.132Z,3.25
2023-04-29T09:21:23.469Z,2.00
2023-04-29T09:23:52.959Z,1.57
2023-04-29T09:26:20.722Z,3.13
2023-04-29T09:28:47.993Z,1.83
2023-04-29T09:31:14.726Z,1.77
2023-04-29T09:33:52.486Z,1.88
2023-04-29T09:36:59.019Z,2.05
2023-04-29T09:39:26.520Z,1.25
2023-04-29T09:41:53.098Z,1.25
2023-04-29T09:44:24.685Z,3.33
2023-04-29T09:47:03.737Z,2.45
2023-04-29T09:49:38.896Z,1.83
2023-04-29T09:52:11.169Z,1.85
2023-04-29T09:54:39.898Z,1.42
2023-04-29T09:57:08.740Z,1.17
2023-04-29T09:59:37.667Z,1.60
2023-04-29T10:02:20.914Z,1.33
2023-04-29T10:04:57.678Z,1.67
2023-04-29T10:07:28.125Z,1.88
2023-04-29T10:09:55.897Z,1.40
2023-04-29T10:12:24.041Z,1.80
2023-04-29T10:14:58.269Z,2.33
2023-04-29T10:17:31.016Z,2.15
2023-04-29T10:20:06.143Z,2.65
2023-04-29T10:22:49.502Z,2.20
2023-04-29T10:25:19.899Z,1.40
2023-04-29T10:27:48.977Z,2.55
2023-04-29T10:30:18.056Z,2.25
2023-04-29T10:32:51.033Z,2.00
2023-04-29T10:35:22.245Z,1.73
2023-04-29T10:37:49.766Z,1.38
2023-04-29T10:40:28.139Z,1.67
2023-04-29T10:42:55.705Z,2.70
2023-04-29T10:45:31.291Z,0.90
2023-04-29T10:48:06.862Z,1.83
2023-04-29T10:50:42.466Z,1.95
2023-04-29T10:53:09.201Z,1.67
2023-04-29T10:55:37.803Z,3.00
2023-04-29T10:58:05.957Z,1.58
2023-04-29T11:00:34.666Z,2.42
2023-04-29T11:03:02.876Z,1.65
2023-04-29T11:05:37.461Z,1.67
2023-04-29T11:08:13.376Z,1.48
2023-04-29T11:10:44.109Z,2.05
2023-04-29T11:13:31.138Z,2.00
2023-04-29T11:16:08.338Z,1.00
2023-04-29T11:18:37.136Z,2.05
2023-04-29T11:21:06.672Z,1.45
2023-04-29T11:23:39.803Z,1.20
2023-04-29T11:26:06.564Z,1.75
2023-04-29T11:28:34.058Z,1.98
2023-04-29T11:31:01.029Z,1.50
2023-04-29T11:33:28.201Z,2.35
2023-04-29T11:35:55.259Z,0.95
2023-04-29T11:38:30.292Z,2.63
2023-04-29T11:40:58.228Z,1.05
2023-04-29T11:43:25.826Z,3.03
2023-04-29T11:45:53.916Z,1.58
2023-04-29T11:48:26.210Z,1.90
2023-04-29T11:53:25.196Z,2.55
2023-04-29T11:55:56.433Z,1.05
2023-04-29T11:58:24.793Z,1.80
2023-04-29T12:00:55.084Z,0.80
2023-04-29T12:03:22.414Z,1.35
2023-04-29T12:05:56.693Z,1.48
2023-04-29T12:08:28.165Z,0.73
2023-04-29T12:10:59.362Z,1.38
2023-04-29T12:13:30.665Z,0.50
2023-04-29T12:15:59.142Z,0.73
2023-04-29T12:18:27.919Z,1.02
2023-04-29T12:20:58.702Z,2.15
2023-04-29T12:23:28.714Z,1.40
2023-04-29T12:26:00.228Z,2.17
2023-04-29T12:28:27.575Z,0.50
2023-04-29T12:30:55.474Z,2.05
2023-04-29T12:33:28.023Z,0.93
2023-04-29T12:35:59.182Z,1.70
2023-04-29T12:38:31.514Z,1.35
2023-04-29T12:41:01.931Z,1.88
2023-04-29T12:43:29.324Z,1.80
2023-04-29T12:46:08.029Z,0.52
2023-04-29T12:48:41.569Z,0.98
2023-04-29T12:51:10.252Z,0.52
2023-04-29T12:53:37.182Z,1.95
2023-04-29T12:56:04.823Z,1.25
2023-04-29T12:58:32.266Z,0.52
2023-04-29T13:00:59.293Z,1.00
2023-04-29T13:03:26.777Z,0.77
2023-04-29T13:05:54.707Z,1.75
2023-04-29T13:08:21.688Z,1.73
2023-04-29T13:10:48.430Z,1.00
2023-04-29T13:13:15.358Z,1.00
2023-04-29T13:15:42.598Z,0.60
2023-04-29T13:18:09.230Z,0.63
2023-04-29T13:20:41.703Z,1.30
2023-04-29T13:23:09.797Z,1.58
2023-04-29T13:25:36.513Z,0.70
2023-04-29T13:28:05.518Z,1.50
2023-04-29T13:30:33.084Z,1.42
2023-04-29T13:33:07.925Z,1.33
2023-04-29T13:35:40.240Z,1.30
2023-04-29T13:38:07.886Z,0.80
2023-04-29T13:40:38.894Z,2.67
2023-04-29T13:43:09.692Z,0.93
2023-04-29T13:45:39.840Z,0.82
2023-04-29T13:48:28.507Z,2.42
2023-04-29T13:54:04.903Z,0.45
2023-04-29T13:59:30.499Z,0.85
2023-04-29T14:03:59.151Z,1.05
2023-04-29T14:06:25.876Z,0.63
2023-04-29T14:08:52.531Z,0.75
2023-04-29T14:11:19.644Z,0.60
2023-04-29T14:13:46.367Z,0.95
2023-04-29T14:16:13.065Z,1.50
2023-04-29T14:18:39.717Z,0.88
2023-04-29T14:21:06.393Z,3.70
2023-04-29T14:23:33.049Z,0.63
2023-04-29T14:26:16.602Z,0.90
2023-04-29T14:28:46.497Z,0.30
2023-04-29T14:31:13.995Z,0.65
2023-04-29T14:33:40.709Z,0.38
2023-04-29T14:36:07.693Z,0.32
2023-04-29T14:38:34.351Z,0.40
2023-04-29T14:41:00.986Z,0.55
2023-04-29T14:43:28.950Z,0.22
2023-04-29T14:45:56.018Z,1.42
2023-04-29T14:48:22.735Z,1.48
2023-04-29T14:50:49.459Z,3.03
2023-04-29T14:53:16.361Z,1.10
2023-04-29T14:55:43.147Z,3.42
2023-04-29T14:58:10.313Z,3.17
2023-04-29T15:00:37.011Z,3.28
2023-04-29T15:03:05.262Z,3.08
2023-04-29T15:05:32.052Z,4.28
2023-04-29T15:08:00.272Z,2.67
2023-04-29T15:10:30.204Z,2.35
2023-04-29T15:12:59.712Z,2.20
2023-04-29T15:15:26.924Z,2.55
2023-04-29T15:17:54.503Z,1.15
2023-04-29T15:20:21.493Z,2.38
2023-04-29T15:22:50.245Z,3.00
2023-04-29T15:25:17.277Z,3.63
2023-04-29T15:27:45.842Z,4.88
2023-04-29T15:30:14.905Z,4.53
2023-04-29T15:32:43.867Z,2.67
2023-04-29T15:35:15.372Z,2.85
2023-04-29T15:37:43.147Z,5.18
2023-04-29T15:40:12.853Z,2.22
2023-04-29T15:42:45.064Z,2.65
2023-04-29T15:45:12.624Z,3.45
2023-04-29T15:47:39.916Z,2.42
2023-04-29T15:50:10.305Z,3.20
2023-04-29T15:52:37.623Z,2.58
2023-04-29T15:55:06.875Z,3.13
2023-04-29T15:57:43.770Z,2.95
2023-04-29T16:00:18.320Z,2.63
2023-04-29T16:02:46.262Z,1.70
2023-04-29T16:05:13.516Z,4.50
2023-04-29T16:07:40.163Z,0.82
2023-04-29T16:10:07.289Z,2.38
2023-04-29T16:12:34.025Z,0.88
2023-04-29T16:15:00.690Z,1.42
2023-04-29T16:17:27.583Z,3.30
2023-04-29T16:19:54.490Z,3.75
2023-04-29T16:22:24.283Z,1.90
2023-04-29T16:24:50.914Z,2.35
2023-04-29T16:27:17.729Z,2.25
2023-04-29T16:29:44.414Z,1.58
2023-04-29T16:32:11.315Z,1.55
2023-04-29T16:34:37.963Z,3.25
2023-04-29T16:37:05.036Z,1.70
2023-04-29T16:39:31.721Z,1.48
2023-04-29T16:41:59.595Z,2.22
2023-04-29T16:44:26.335Z,2.00
2023-04-29T16:46:53.397Z,2.30
2023-04-29T16:49:26.445Z,2.17
2023-04-29T16:51:54.600Z,1.75
2023-04-29T16:54:25.029Z,3.15
2023-04-29T16:56:51.728Z,2.63
2023-04-29T16:59:18.336Z,2.17
2023-04-29T17:01:45.199Z,2.88
2023-04-29T17:04:12.063Z,1.52
2023-04-29T17:06:40.712Z,1.50
2023-04-29T17:09:07.732Z,1.58
2023-04-29T17:11:34.423Z,2.13
2023-04-29T17:14:01.092Z,0.50
2023-04-29T17:16:28.949Z,1.60
2023-04-29T17:18:55.693Z,1.00
2023-04-29T17:21:26.073Z,1.40
2023-04-29T17:23:53.419Z,2.15
2023-04-29T17:26:21.174Z,1.60
2023-04-29T17:28:47.961Z,1.38
2023-04-29T17:31:15.521Z,1.90
2023-04-29T17:33:54.494Z,3.05
2023-04-29T17:36:22.575Z,1.60
2023-04-29T17:38:49.229Z,3.30
2023-04-29T17:41:15.876Z,1.75
2023-04-29T17:43:42.513Z,3.67
2023-04-29T17:46:09.191Z,2.20
2023-04-29T17:48:35.901Z,3.85
2023-04-29T17:51:02.523Z,3.45
2023-04-29T17:53:29.225Z,3.83
2023-04-29T17:55:55.879Z,2.13
2023-04-29T17:58:22.593Z,2.15
2023-04-29T18:00:49.306Z,4.32
2023-04-29T18:03:16.055Z,3.65
2023-04-29T18:05:42.833Z,4.70
2023-04-29T18:08:09.502Z,3.58
2023-04-29T18:10:36.131Z,2.28
2023-04-29T18:13:03.465Z,3.25
2023-04-29T18:15:30.310Z,2.80
2023-04-29T18:17:56.999Z,3.13
2023-04-29T18:20:23.807Z,2.67
2023-04-29T18:22:50.738Z,6.00
2023-04-29T18:25:17.481Z,2.03
2023-04-29T18:27:44.535Z,2.47
2023-04-29T18:30:11.560Z,2.50
2023-04-29T18:32:38.552Z,1.40
2023-04-29T18:35:05.790Z,1.50
2023-04-29T18:37:32.462Z,1.73
2023-04-29T18:39:59.123Z,1.45
2023-04-29T18:42:26.024Z,2.33
2023-04-29T18:44:52.802Z,2.95
2023-04-29T18:47:19.693Z,1.80
2023-04-29T18:49:46.709Z,2.45
2023-04-29T18:52:13.384Z,2.67
2023-04-29T18:54:40.061Z,2.17
2023-04-29T18:57:06.907Z,2.03
2023-04-29T18:59:35.968Z,2.13
2023-04-29T19:02:02.738Z,3.58
2023-04-29T19:04:29.512Z,3.30
2023-04-29T19:06:57.633Z,3.90
2023-04-29T19:09:24.253Z,3.10
2023-04-29T19:11:50.900Z,2.05
2023-04-29T19:14:17.583Z,2.72
2023-04-29T19:16:44.204Z,2.53
2023-04-29T19:19:10.967Z,3.63
2023-04-29T19:21:37.809Z,4.03
2023-04-29T19:24:04.657Z,3.05
2023-04-29T19:26:33.889Z,2.13
2023-04-29T19:29:02.308Z,2.58
2023-04-29T19:31:29.061Z,5.15
2023-04-29T19:33:55.914Z,4.28
2023-04-29T19:36:22.550Z,6.25
2023-04-29T19:38:49.337Z,4.07
2023-04-29T19:41:16.553Z,2.97
2023-04-29T19:43:43.191Z,2.97
2023-04-29T19:46:14.440Z,3.55
2023-04-29T19:48:41.144Z,5.03
2023-04-29T19:51:08.665Z,2.60
2023-04-29T19:53:36.780Z,5.00
2023-04-29T19:56:03.473Z,4.80
2023-04-29T19:58:30.152Z,2.97
2023-04-29T20:00:57.010Z,5.32
2023-04-29T20:03:24.031Z,3.53
2023-04-29T20:05:50.997Z,7.15
2023-04-29T20:08:17.839Z,4.05
2023-04-29T20:10:45.932Z,5.70
2023-04-29T20:13:12.573Z,4.82
2023-04-29T20:15:39.206Z,5.80
2023-04-29T20:18:06.050Z,5.93
2023-04-29T20:20:32.694Z,4.30
2023-04-29T20:23:00.391Z,4.93
2023-04-29T20:25:27.382Z,5.38
2023-04-29T20:27:54.388Z,7.97
2023-04-29T20:30:21.641Z,5.50
2023-04-29T20:32:48.410Z,6.68
2023-04-29T20:35:15.978Z,7.35
2023-04-29T20:37:42.826Z,5.57
2023-04-29T20:40:10.047Z,5.15
2023-04-29T20:42:36.700Z,4.75
2023-04-29T20:45:04.578Z,4.10
2023-04-29T20:47:31.226Z,10.98
2023-04-29T20:49:57.958Z,4.57
2023-04-29T20:52:24.604Z,3.42
2023-04-29T20:54:52.575Z,4.53
2023-04-29T20:57:19.257Z,4.30
2023-04-29T20:59:45.969Z,4.97
2023-04-29T21:02:12.767Z,3.65
2023-04-29T21:04:39.491Z,3.75
2023-04-29T21:07:07.631Z,7.78
2023-04-29T21:09:35.821Z,4.85
2023-04-29T21:12:06.151Z,2.80
2023-04-29T21:14:33.769Z,4.38
2023-04-29T21:17:00.844Z,3.47
2023-04-29T21:19:27.539Z,4.30
2023-04-29T21:21:54.175Z,3.58
2023-04-29T21:24:21.627Z,3.38
2023-04-29T21:26:50.316Z,3.55
2023-04-29T21:29:17.055Z,4.93
2023-04-29T21:31:43.697Z,6.85
2023-04-29T21:34:10.354Z,5.25
2023-04-29T21:36:37.000Z,4.15
2023-04-29T21:39:03.701Z,4.30
2023-04-29T21:41:34.802Z,3.25
2023-04-29T21:44:02.268Z,4.25
2023-04-29T21:46:30.679Z,6.72
2023-04-29T21:48:58.022Z,5.80
2023-04-29T21:51:25.010Z,4.97
2023-04-29T21:53:52.026Z,4.03
2023-04-29T21:56:19.334Z,5.05
2023-04-29T21:58:46.214Z,3.85
2023-04-29T22:01:36.160Z,4.32
2023-04-29T22:04:03.479Z,4.57
2023-04-29T22:06:31.304Z,6.45
2023-04-29T22:08:57.976Z,3.92
2023-04-29T22:11:26.169Z,4.22
2023-04-29T22:13:53.360Z,4.15
2023-04-29T22:16:20.074Z,3.60
2023-04-29T22:18:46.778Z,6.13
2023-04-29T22:21:13.470Z,5.68
2023-04-29T22:23:40.209Z,3.65
2023-04-29T22:26:06.921Z,5.47
2023-04-29T22:28:33.580Z,4.40
2023-04-29T22:31:00.300Z,5.10
2023-04-29T22:33:27.039Z,4.05
2023-04-29T22:35:53.647Z,7.07
2023-04-29T22:38:20.364Z,6.00
2023-04-29T22:40:51.136Z,5.30
2023-04-29T22:43:18.011Z,3.60
2023-04-29T22:45:54.788Z,5.18
2023-04-29T22:48:22.825Z,6.28
2023-04-29T22:50:54.688Z,8.32
2023-04-29T22:53:22.239Z,3.80
2023-04-29T22:55:50.745Z,4.28
2023-04-29T22:58:17.510Z,4.93
2023-04-29T23:00:45.350Z,5.28
2023-04-29T23:03:12.263Z,4.93
2023-04-29T23:05:39.093Z,5.55
2023-04-29T23:08:06.675Z,5.32
2023-04-29T23:10:34.286Z,7.95
2023-04-29T23:13:01.478Z,5.32
2023-04-29T23:15:28.931Z,7.50
2023-04-29T23:17:56.227Z,5.53
2023-04-29T23:20:23.204Z,8.73
2023-04-29T23:22:50.297Z,7.97
2023-04-29T23:25:17.057Z,5.22
2023-04-29T23:27:43.764Z,6.50
2023-04-29T23:30:10.478Z,5.63
2023-04-29T23:32:37.150Z,5.72
2023-04-29T23:35:03.981Z,5.35
2023-04-29T23:37:30.935Z,5.38
2023-04-29T23:39:57.942Z,4.47
2023-04-29T23:42:25.034Z,6.60
2023-04-29T23:44:51.664Z,5.20
2023-04-29T23:47:18.286Z,5.85
2023-04-29T23:49:45.039Z,6.38
2023-04-29T23:52:11.736Z,4.95
2023-04-29T23:54:38.587Z,6.05
2023-04-29T23:57:05.328Z,4.20
2023-04-29T23:59:31.953Z,5.07
